Terminal Aerodrome Forecast
Issued by NWS

Home | Current Version | Previous Version | Text Only | Print | Product List | Glossary On
Versions: 1 2 3 4 5 6 7 8 9 10 11 12 13
000
FTUS41 KCAR 242300
TAFFVE
TAF
KFVE 242326Z 2500/2524 VRB02KT P6SM SKC
     FM250600 26004KT P6SM SCT120
     FM251200 VRB03KT P6SM SKC
     FM251400 26007KT P6SM BKN050=

USA.gov is the U.S. government's official web portal to all federal, state and local government web resources and services.